Terminal Aerodrome Forecast
Issued by NWS Houston/Galveston, TX

Home | Current Version | Previous Version | Text Only | Print | Product List | Glossary On
Versions: 1 2 3 4 5 6 7 8 9 10 11 12 13 14 15 16 17 18 19 20 21 22 23 24 25 26 27 28 29 30 31 32 33 34 35 36 37 38 39 40 41 42
000
FTUS44 KHGX 280030 AAA
TAFCLL
TAF AMD
KCLL 280030Z 2801/2824 05012KT P6SM BKN025 BKN090
     FM280500 05010KT P6SM SCT015 OVC035
     FM281000 05010KT P6SM SCT015 OVC025
     FM281700 07009KT P6SM BKN025 OVC045
     FM282000 08009KT P6SM BKN025 BKN070=

USA.gov is the U.S. government's official web portal to all federal, state and local government web resources and services.